<?xml version="1.0" encoding="UTF-8" standalone="no" ?>
<gpx xmlns="http://www.topografix.com/GPX/1/1" xmlns:xsi="http://www.w3.org/2001/XMLSchema-instance" xsi:schemaLocation="http://www.topografix.com/GPX/1/1 http://www.topografix.com/GPX/1/1/gpx.xsd" version="1.1" creator="VisuGPX - https://www.visugpx.com">
  <metadata>
    <name>aydat tour du lac</name>
    <desc><![CDATA[balade kayak tour du lac par les rives en partant de la base nautique]]></desc>
  </metadata>
  <trk>
    <name><![CDATA[Magellan_ActiveTrack]]></name>
    <desc><![CDATA[From Active Track]]></desc>
    <trkseg>
      <trkpt lat="45.66588" lon="2.98413">
        <ele>851.296875</ele>
        <time>2014-04-27T14:15:07Z</time>
      </trkpt>
      <trkpt lat="45.66579" lon="2.98411">
        <ele>844.898438</ele>
        <time>2014-04-27T14:16:23Z</time>
      </trkpt>
      <trkpt lat="45.66573" lon="2.984">
        <ele>846</ele>
        <time>2014-04-27T14:16:31Z</time>
      </trkpt>
      <trkpt lat="45.66553" lon="2.98352">
        <ele>852.5</ele>
        <time>2014-04-27T14:16:59Z</time>
      </trkpt>
      <trkpt lat="45.66535" lon="2.98304">
        <ele>855.097656</ele>
        <time>2014-04-27T14:17:30Z</time>
      </trkpt>
      <trkpt lat="45.66531" lon="2.98291">
        <ele>854.898438</ele>
        <time>2014-04-27T14:17:38Z</time>
      </trkpt>
      <trkpt lat="45.66529" lon="2.98276">
        <ele>855.5</ele>
        <time>2014-04-27T14:17:47Z</time>
      </trkpt>
      <trkpt lat="45.66524" lon="2.98222">
        <ele>853.796875</ele>
        <time>2014-04-27T14:18:18Z</time>
      </trkpt>
      <trkpt lat="45.6652" lon="2.9821">
        <ele>853.898438</ele>
        <time>2014-04-27T14:18:26Z</time>
      </trkpt>
      <trkpt lat="45.66514" lon="2.98199">
        <ele>854.699219</ele>
        <time>2014-04-27T14:18:35Z</time>
      </trkpt>
      <trkpt lat="45.66504" lon="2.98177">
        <ele>854.296875</ele>
        <time>2014-04-27T14:18:50Z</time>
      </trkpt>
      <trkpt lat="45.66498" lon="2.98167">
        <ele>853.199219</ele>
        <time>2014-04-27T14:18:59Z</time>
      </trkpt>
      <trkpt lat="45.66492" lon="2.98156">
        <ele>852.699219</ele>
        <time>2014-04-27T14:19:08Z</time>
      </trkpt>
      <trkpt lat="45.66478" lon="2.98137">
        <ele>852.5</ele>
        <time>2014-04-27T14:19:25Z</time>
      </trkpt>
      <trkpt lat="45.66471" lon="2.98128">
        <ele>851.898438</ele>
        <time>2014-04-27T14:19:33Z</time>
      </trkpt>
      <trkpt lat="45.66463" lon="2.98119">
        <ele>851</ele>
        <time>2014-04-27T14:19:41Z</time>
      </trkpt>
      <trkpt lat="45.66457" lon="2.9811">
        <ele>850.398438</ele>
        <time>2014-04-27T14:19:49Z</time>
      </trkpt>
      <trkpt lat="45.66449" lon="2.98102">
        <ele>851.199219</ele>
        <time>2014-04-27T14:19:58Z</time>
      </trkpt>
      <trkpt lat="45.66434" lon="2.98088">
        <ele>853.398438</ele>
        <time>2014-04-27T14:20:14Z</time>
      </trkpt>
      <trkpt lat="45.66425" lon="2.98083">
        <ele>852.398438</ele>
        <time>2014-04-27T14:20:22Z</time>
      </trkpt>
      <trkpt lat="45.66416" lon="2.9808">
        <ele>853.097656</ele>
        <time>2014-04-27T14:20:30Z</time>
      </trkpt>
      <trkpt lat="45.66406" lon="2.9808">
        <ele>852.5</ele>
        <time>2014-04-27T14:20:38Z</time>
      </trkpt>
      <trkpt lat="45.66397" lon="2.98078">
        <ele>852.296875</ele>
        <time>2014-04-27T14:20:46Z</time>
      </trkpt>
      <trkpt lat="45.66391" lon="2.98103">
        <ele>852.296875</ele>
        <time>2014-04-27T14:20:53Z</time>
      </trkpt>
      <trkpt lat="45.66393" lon="2.98079">
        <ele>852.296875</ele>
        <time>2014-04-27T14:20:54Z</time>
      </trkpt>
      <trkpt lat="45.66395" lon="2.98066">
        <ele>846.296875</ele>
        <time>2014-04-27T14:20:55Z</time>
      </trkpt>
      <trkpt lat="45.66386" lon="2.98059">
        <ele>846.597656</ele>
        <time>2014-04-27T14:21:07Z</time>
      </trkpt>
      <trkpt lat="45.66379" lon="2.98051">
        <ele>846.398438</ele>
        <time>2014-04-27T14:21:16Z</time>
      </trkpt>
      <trkpt lat="45.66371" lon="2.98043">
        <ele>846.699219</ele>
        <time>2014-04-27T14:21:24Z</time>
      </trkpt>
      <trkpt lat="45.66363" lon="2.98036">
        <ele>846.898438</ele>
        <time>2014-04-27T14:21:32Z</time>
      </trkpt>
      <trkpt lat="45.66354" lon="2.98031">
        <ele>846.898438</ele>
        <time>2014-04-27T14:21:40Z</time>
      </trkpt>
      <trkpt lat="45.66328" lon="2.98016">
        <ele>846.398438</ele>
        <time>2014-04-27T14:22:05Z</time>
      </trkpt>
      <trkpt lat="45.6631" lon="2.98008">
        <ele>847.898438</ele>
        <time>2014-04-27T14:22:22Z</time>
      </trkpt>
      <trkpt lat="45.66301" lon="2.98007">
        <ele>847.699219</ele>
        <time>2014-04-27T14:22:30Z</time>
      </trkpt>
      <trkpt lat="45.66292" lon="2.98008">
        <ele>845.796875</ele>
        <time>2014-04-27T14:22:38Z</time>
      </trkpt>
      <trkpt lat="45.66282" lon="2.98011">
        <ele>845.796875</ele>
        <time>2014-04-27T14:22:47Z</time>
      </trkpt>
      <trkpt lat="45.66264" lon="2.98016">
        <ele>845.796875</ele>
        <time>2014-04-27T14:23:03Z</time>
      </trkpt>
      <trkpt lat="45.66255" lon="2.98021">
        <ele>846.097656</ele>
        <time>2014-04-27T14:23:12Z</time>
      </trkpt>
      <trkpt lat="45.66246" lon="2.98027">
        <ele>844.898438</ele>
        <time>2014-04-27T14:23:21Z</time>
      </trkpt>
      <trkpt lat="45.66221" lon="2.98048">
        <ele>841.398438</ele>
        <time>2014-04-27T14:23:49Z</time>
      </trkpt>
      <trkpt lat="45.66155" lon="2.98102">
        <ele>837.296875</ele>
        <time>2014-04-27T14:24:59Z</time>
      </trkpt>
      <trkpt lat="45.66147" lon="2.98111">
        <ele>837</ele>
        <time>2014-04-27T14:25:09Z</time>
      </trkpt>
      <trkpt lat="45.6614" lon="2.9812">
        <ele>837.199219</ele>
        <time>2014-04-27T14:25:18Z</time>
      </trkpt>
      <trkpt lat="45.66131" lon="2.98127">
        <ele>838.398438</ele>
        <time>2014-04-27T14:25:27Z</time>
      </trkpt>
      <trkpt lat="45.66124" lon="2.98121">
        <ele>847.5</ele>
        <time>2014-04-27T14:25:39Z</time>
      </trkpt>
      <trkpt lat="45.66129" lon="2.98131">
        <ele>841.699219</ele>
        <time>2014-04-27T14:26:36Z</time>
      </trkpt>
      <trkpt lat="45.6613" lon="2.98145">
        <ele>841.597656</ele>
        <time>2014-04-27T14:26:45Z</time>
      </trkpt>
      <trkpt lat="45.66131" lon="2.98158">
        <ele>838.296875</ele>
        <time>2014-04-27T14:26:57Z</time>
      </trkpt>
      <trkpt lat="45.66133" lon="2.98172">
        <ele>839</ele>
        <time>2014-04-27T14:27:06Z</time>
      </trkpt>
      <trkpt lat="45.66141" lon="2.98213">
        <ele>838.796875</ele>
        <time>2014-04-27T14:27:35Z</time>
      </trkpt>
      <trkpt lat="45.66145" lon="2.98225">
        <ele>839.5</ele>
        <time>2014-04-27T14:27:43Z</time>
      </trkpt>
      <trkpt lat="45.66148" lon="2.98238">
        <ele>840.199219</ele>
        <time>2014-04-27T14:27:52Z</time>
      </trkpt>
      <trkpt lat="45.6615" lon="2.98252">
        <ele>838.097656</ele>
        <time>2014-04-27T14:28:02Z</time>
      </trkpt>
      <trkpt lat="45.66152" lon="2.98265">
        <ele>834.5</ele>
        <time>2014-04-27T14:28:11Z</time>
      </trkpt>
      <trkpt lat="45.66152" lon="2.98279">
        <ele>830.398438</ele>
        <time>2014-04-27T14:28:19Z</time>
      </trkpt>
      <trkpt lat="45.6615" lon="2.98306">
        <ele>831.296875</ele>
        <time>2014-04-27T14:28:36Z</time>
      </trkpt>
      <trkpt lat="45.66147" lon="2.98319">
        <ele>832.898438</ele>
        <time>2014-04-27T14:28:45Z</time>
      </trkpt>
      <trkpt lat="45.66146" lon="2.98333">
        <ele>832.296875</ele>
        <time>2014-04-27T14:28:54Z</time>
      </trkpt>
      <trkpt lat="45.6614" lon="2.98359">
        <ele>835.796875</ele>
        <time>2014-04-27T14:29:10Z</time>
      </trkpt>
      <trkpt lat="45.66134" lon="2.98371">
        <ele>835.796875</ele>
        <time>2014-04-27T14:29:19Z</time>
      </trkpt>
      <trkpt lat="45.66128" lon="2.98382">
        <ele>836.097656</ele>
        <time>2014-04-27T14:29:27Z</time>
      </trkpt>
      <trkpt lat="45.66099" lon="2.98435">
        <ele>839.597656</ele>
        <time>2014-04-27T14:30:06Z</time>
      </trkpt>
      <trkpt lat="45.66093" lon="2.98446">
        <ele>838.699219</ele>
        <time>2014-04-27T14:30:17Z</time>
      </trkpt>
      <trkpt lat="45.66089" lon="2.98458">
        <ele>839</ele>
        <time>2014-04-27T14:30:29Z</time>
      </trkpt>
      <trkpt lat="45.66086" lon="2.98471">
        <ele>839</ele>
        <time>2014-04-27T14:30:38Z</time>
      </trkpt>
      <trkpt lat="45.66084" lon="2.98484">
        <ele>838.796875</ele>
        <time>2014-04-27T14:30:47Z</time>
      </trkpt>
      <trkpt lat="45.66083" lon="2.98497">
        <ele>837.597656</ele>
        <time>2014-04-27T14:30:57Z</time>
      </trkpt>
      <trkpt lat="45.66085" lon="2.9851">
        <ele>835.898438</ele>
        <time>2014-04-27T14:31:06Z</time>
      </trkpt>
      <trkpt lat="45.66086" lon="2.98523">
        <ele>836.5</ele>
        <time>2014-04-27T14:31:14Z</time>
      </trkpt>
      <trkpt lat="45.66086" lon="2.9855">
        <ele>825.398438</ele>
        <time>2014-04-27T14:31:24Z</time>
      </trkpt>
      <trkpt lat="45.66094" lon="2.98557">
        <ele>835.597656</ele>
        <time>2014-04-27T14:31:28Z</time>
      </trkpt>
      <trkpt lat="45.66095" lon="2.98571">
        <ele>834.5</ele>
        <time>2014-04-27T14:31:44Z</time>
      </trkpt>
      <trkpt lat="45.66098" lon="2.98583">
        <ele>833.597656</ele>
        <time>2014-04-27T14:31:53Z</time>
      </trkpt>
      <trkpt lat="45.66109" lon="2.98623">
        <ele>829.199219</ele>
        <time>2014-04-27T14:32:20Z</time>
      </trkpt>
      <trkpt lat="45.66113" lon="2.98635">
        <ele>832.898438</ele>
        <time>2014-04-27T14:32:30Z</time>
      </trkpt>
      <trkpt lat="45.6612" lon="2.98646">
        <ele>837.199219</ele>
        <time>2014-04-27T14:32:41Z</time>
      </trkpt>
      <trkpt lat="45.66127" lon="2.98654">
        <ele>836</ele>
        <time>2014-04-27T14:32:52Z</time>
      </trkpt>
      <trkpt lat="45.66135" lon="2.98662">
        <ele>836.597656</ele>
        <time>2014-04-27T14:33:00Z</time>
      </trkpt>
      <trkpt lat="45.66142" lon="2.98669">
        <ele>837.398438</ele>
        <time>2014-04-27T14:33:09Z</time>
      </trkpt>
      <trkpt lat="45.66151" lon="2.98674">
        <ele>836.796875</ele>
        <time>2014-04-27T14:33:18Z</time>
      </trkpt>
      <trkpt lat="45.66168" lon="2.98684">
        <ele>836.597656</ele>
        <time>2014-04-27T14:33:34Z</time>
      </trkpt>
      <trkpt lat="45.66178" lon="2.98686">
        <ele>838.699219</ele>
        <time>2014-04-27T14:33:44Z</time>
      </trkpt>
      <trkpt lat="45.66186" lon="2.9869">
        <ele>841</ele>
        <time>2014-04-27T14:33:53Z</time>
      </trkpt>
      <trkpt lat="45.66193" lon="2.98701">
        <ele>841.097656</ele>
        <time>2014-04-27T14:34:02Z</time>
      </trkpt>
      <trkpt lat="45.66196" lon="2.98713">
        <ele>841.199219</ele>
        <time>2014-04-27T14:34:10Z</time>
      </trkpt>
      <trkpt lat="45.66195" lon="2.98726">
        <ele>841.398438</ele>
        <time>2014-04-27T14:34:17Z</time>
      </trkpt>
      <trkpt lat="45.66193" lon="2.9874">
        <ele>839.898438</ele>
        <time>2014-04-27T14:34:25Z</time>
      </trkpt>
      <trkpt lat="45.66192" lon="2.98753">
        <ele>838.5</ele>
        <time>2014-04-27T14:34:33Z</time>
      </trkpt>
      <trkpt lat="45.6619" lon="2.98766">
        <ele>837.898438</ele>
        <time>2014-04-27T14:34:42Z</time>
      </trkpt>
      <trkpt lat="45.66187" lon="2.9878">
        <ele>837.5</ele>
        <time>2014-04-27T14:34:51Z</time>
      </trkpt>
      <trkpt lat="45.66183" lon="2.98792">
        <ele>837.5</ele>
        <time>2014-04-27T14:34:59Z</time>
      </trkpt>
      <trkpt lat="45.66165" lon="2.9884">
        <ele>835.5</ele>
        <time>2014-04-27T14:35:30Z</time>
      </trkpt>
      <trkpt lat="45.66156" lon="2.98855">
        <ele>834.796875</ele>
        <time>2014-04-27T14:35:41Z</time>
      </trkpt>
      <trkpt lat="45.66145" lon="2.98876">
        <ele>838.097656</ele>
        <time>2014-04-27T14:36:00Z</time>
      </trkpt>
      <trkpt lat="45.66138" lon="2.98885">
        <ele>839</ele>
        <time>2014-04-27T14:36:08Z</time>
      </trkpt>
      <trkpt lat="45.66125" lon="2.98905">
        <ele>814.398438</ele>
        <time>2014-04-27T14:36:25Z</time>
      </trkpt>
      <trkpt lat="45.66139" lon="2.98919">
        <ele>819.796875</ele>
        <time>2014-04-27T14:36:45Z</time>
      </trkpt>
      <trkpt lat="45.6613" lon="2.98919">
        <ele>828.699219</ele>
        <time>2014-04-27T14:36:45Z</time>
      </trkpt>
      <trkpt lat="45.66114" lon="2.98926">
        <ele>832.398438</ele>
        <time>2014-04-27T14:36:47Z</time>
      </trkpt>
      <trkpt lat="45.66102" lon="2.98937">
        <ele>834.597656</ele>
        <time>2014-04-27T14:37:00Z</time>
      </trkpt>
      <trkpt lat="45.66095" lon="2.98945">
        <ele>834.796875</ele>
        <time>2014-04-27T14:37:08Z</time>
      </trkpt>
      <trkpt lat="45.66089" lon="2.98956">
        <ele>835.5</ele>
        <time>2014-04-27T14:37:16Z</time>
      </trkpt>
      <trkpt lat="45.66076" lon="2.98976">
        <ele>838.097656</ele>
        <time>2014-04-27T14:37:32Z</time>
      </trkpt>
      <trkpt lat="45.66048" lon="2.99012">
        <ele>839.199219</ele>
        <time>2014-04-27T14:38:09Z</time>
      </trkpt>
      <trkpt lat="45.66043" lon="2.99023">
        <ele>838.898438</ele>
        <time>2014-04-27T14:38:21Z</time>
      </trkpt>
      <trkpt lat="45.66041" lon="2.99036">
        <ele>839.5</ele>
        <time>2014-04-27T14:38:32Z</time>
      </trkpt>
      <trkpt lat="45.6604" lon="2.99049">
        <ele>840.199219</ele>
        <time>2014-04-27T14:38:41Z</time>
      </trkpt>
      <trkpt lat="45.6604" lon="2.99063">
        <ele>839.5</ele>
        <time>2014-04-27T14:38:50Z</time>
      </trkpt>
      <trkpt lat="45.66041" lon="2.99076">
        <ele>840.199219</ele>
        <time>2014-04-27T14:38:59Z</time>
      </trkpt>
      <trkpt lat="45.66045" lon="2.99089">
        <ele>840.5</ele>
        <time>2014-04-27T14:39:09Z</time>
      </trkpt>
      <trkpt lat="45.66048" lon="2.99102">
        <ele>840.398438</ele>
        <time>2014-04-27T14:39:18Z</time>
      </trkpt>
      <trkpt lat="45.66055" lon="2.99127">
        <ele>842.796875</ele>
        <time>2014-04-27T14:39:37Z</time>
      </trkpt>
      <trkpt lat="45.66058" lon="2.9914">
        <ele>844.898438</ele>
        <time>2014-04-27T14:39:46Z</time>
      </trkpt>
      <trkpt lat="45.66058" lon="2.99154">
        <ele>843.199219</ele>
        <time>2014-04-27T14:39:56Z</time>
      </trkpt>
      <trkpt lat="45.66057" lon="2.99168">
        <ele>841</ele>
        <time>2014-04-27T14:40:05Z</time>
      </trkpt>
      <trkpt lat="45.66054" lon="2.99181">
        <ele>841.199219</ele>
        <time>2014-04-27T14:40:14Z</time>
      </trkpt>
      <trkpt lat="45.6605" lon="2.99193">
        <ele>841.898438</ele>
        <time>2014-04-27T14:40:22Z</time>
      </trkpt>
      <trkpt lat="45.6605" lon="2.99207">
        <ele>841.796875</ele>
        <time>2014-04-27T14:40:34Z</time>
      </trkpt>
      <trkpt lat="45.66056" lon="2.99217">
        <ele>844.699219</ele>
        <time>2014-04-27T14:40:45Z</time>
      </trkpt>
      <trkpt lat="45.66063" lon="2.99227">
        <ele>842.398438</ele>
        <time>2014-04-27T14:41:29Z</time>
      </trkpt>
      <trkpt lat="45.66072" lon="2.9923">
        <ele>859.398438</ele>
        <time>2014-04-27T14:41:41Z</time>
      </trkpt>
      <trkpt lat="45.66086" lon="2.99218">
        <ele>840.898438</ele>
        <time>2014-04-27T14:41:57Z</time>
      </trkpt>
      <trkpt lat="45.66094" lon="2.99227">
        <ele>839.597656</ele>
        <time>2014-04-27T14:42:04Z</time>
      </trkpt>
      <trkpt lat="45.66102" lon="2.99225">
        <ele>842.796875</ele>
        <time>2014-04-27T14:42:21Z</time>
      </trkpt>
      <trkpt lat="45.66107" lon="2.99212">
        <ele>841.898438</ele>
        <time>2014-04-27T14:42:32Z</time>
      </trkpt>
      <trkpt lat="45.66114" lon="2.99205">
        <ele>841.097656</ele>
        <time>2014-04-27T14:42:46Z</time>
      </trkpt>
      <trkpt lat="45.66122" lon="2.99198">
        <ele>841.898438</ele>
        <time>2014-04-27T14:42:59Z</time>
      </trkpt>
      <trkpt lat="45.66128" lon="2.99185">
        <ele>843.597656</ele>
        <time>2014-04-27T14:43:16Z</time>
      </trkpt>
      <trkpt lat="45.66131" lon="2.99173">
        <ele>842.796875</ele>
        <time>2014-04-27T14:43:26Z</time>
      </trkpt>
      <trkpt lat="45.66135" lon="2.99161">
        <ele>841.5</ele>
        <time>2014-04-27T14:43:37Z</time>
      </trkpt>
      <trkpt lat="45.66142" lon="2.99151">
        <ele>842.898438</ele>
        <time>2014-04-27T14:43:48Z</time>
      </trkpt>
      <trkpt lat="45.66167" lon="2.99112">
        <ele>844</ele>
        <time>2014-04-27T14:44:39Z</time>
      </trkpt>
      <trkpt lat="45.66174" lon="2.99104">
        <ele>844.398438</ele>
        <time>2014-04-27T14:44:51Z</time>
      </trkpt>
      <trkpt lat="45.66189" lon="2.99086">
        <ele>843</ele>
        <time>2014-04-27T14:45:19Z</time>
      </trkpt>
      <trkpt lat="45.66196" lon="2.99079">
        <ele>843.898438</ele>
        <time>2014-04-27T14:45:31Z</time>
      </trkpt>
      <trkpt lat="45.6622" lon="2.99058">
        <ele>843.398438</ele>
        <time>2014-04-27T14:46:10Z</time>
      </trkpt>
      <trkpt lat="45.66229" lon="2.99053">
        <ele>845.398438</ele>
        <time>2014-04-27T14:46:21Z</time>
      </trkpt>
      <trkpt lat="45.66247" lon="2.99045">
        <ele>846.398438</ele>
        <time>2014-04-27T14:46:42Z</time>
      </trkpt>
      <trkpt lat="45.66256" lon="2.99045">
        <ele>843.199219</ele>
        <time>2014-04-27T14:46:51Z</time>
      </trkpt>
      <trkpt lat="45.66265" lon="2.99048">
        <ele>875.199219</ele>
        <time>2014-04-27T14:47:00Z</time>
      </trkpt>
      <trkpt lat="45.66271" lon="2.99024">
        <ele>847.097656</ele>
        <time>2014-04-27T14:47:12Z</time>
      </trkpt>
      <trkpt lat="45.66276" lon="2.99041">
        <ele>846.398438</ele>
        <time>2014-04-27T14:47:12Z</time>
      </trkpt>
      <trkpt lat="45.66284" lon="2.99049">
        <ele>845.199219</ele>
        <time>2014-04-27T14:47:21Z</time>
      </trkpt>
      <trkpt lat="45.66292" lon="2.99056">
        <ele>844.398438</ele>
        <time>2014-04-27T14:47:29Z</time>
      </trkpt>
      <trkpt lat="45.66298" lon="2.99066">
        <ele>846.898438</ele>
        <time>2014-04-27T14:47:39Z</time>
      </trkpt>
      <trkpt lat="45.66304" lon="2.99057">
        <ele>846.597656</ele>
        <time>2014-04-27T14:52:50Z</time>
      </trkpt>
      <trkpt lat="45.66314" lon="2.99055">
        <ele>845.199219</ele>
        <time>2014-04-27T14:53:00Z</time>
      </trkpt>
      <trkpt lat="45.66324" lon="2.99056">
        <ele>842.898438</ele>
        <time>2014-04-27T14:53:09Z</time>
      </trkpt>
      <trkpt lat="45.66333" lon="2.99058">
        <ele>842.597656</ele>
        <time>2014-04-27T14:53:18Z</time>
      </trkpt>
      <trkpt lat="45.66343" lon="2.99058">
        <ele>842.699219</ele>
        <time>2014-04-27T14:53:27Z</time>
      </trkpt>
      <trkpt lat="45.66353" lon="2.99057">
        <ele>843.5</ele>
        <time>2014-04-27T14:53:36Z</time>
      </trkpt>
      <trkpt lat="45.66362" lon="2.99059">
        <ele>843.699219</ele>
        <time>2014-04-27T14:53:45Z</time>
      </trkpt>
      <trkpt lat="45.66372" lon="2.99061">
        <ele>842.699219</ele>
        <time>2014-04-27T14:53:54Z</time>
      </trkpt>
      <trkpt lat="45.6638" lon="2.99064">
        <ele>841.097656</ele>
        <time>2014-04-27T14:54:02Z</time>
      </trkpt>
      <trkpt lat="45.66388" lon="2.99072">
        <ele>840.296875</ele>
        <time>2014-04-27T14:54:10Z</time>
      </trkpt>
      <trkpt lat="45.66397" lon="2.99077">
        <ele>840.097656</ele>
        <time>2014-04-27T14:54:18Z</time>
      </trkpt>
      <trkpt lat="45.66477" lon="2.99126">
        <ele>844.796875</ele>
        <time>2014-04-27T14:55:38Z</time>
      </trkpt>
      <trkpt lat="45.66485" lon="2.99132">
        <ele>842.597656</ele>
        <time>2014-04-27T14:55:47Z</time>
      </trkpt>
      <trkpt lat="45.66501" lon="2.99148">
        <ele>840.296875</ele>
        <time>2014-04-27T14:56:04Z</time>
      </trkpt>
      <trkpt lat="45.66516" lon="2.99163">
        <ele>841.097656</ele>
        <time>2014-04-27T14:56:18Z</time>
      </trkpt>
      <trkpt lat="45.66537" lon="2.9919">
        <ele>842.398438</ele>
        <time>2014-04-27T14:56:37Z</time>
      </trkpt>
      <trkpt lat="45.66541" lon="2.99201">
        <ele>842.898438</ele>
        <time>2014-04-27T14:56:45Z</time>
      </trkpt>
      <trkpt lat="45.66548" lon="2.99212">
        <ele>843.898438</ele>
        <time>2014-04-27T14:56:54Z</time>
      </trkpt>
      <trkpt lat="45.66555" lon="2.99223">
        <ele>843.296875</ele>
        <time>2014-04-27T14:57:02Z</time>
      </trkpt>
      <trkpt lat="45.6656" lon="2.99235">
        <ele>840.398438</ele>
        <time>2014-04-27T14:57:10Z</time>
      </trkpt>
      <trkpt lat="45.66563" lon="2.99248">
        <ele>838.699219</ele>
        <time>2014-04-27T14:57:18Z</time>
      </trkpt>
      <trkpt lat="45.66563" lon="2.99262">
        <ele>838.898438</ele>
        <time>2014-04-27T14:57:25Z</time>
      </trkpt>
      <trkpt lat="45.66576" lon="2.99261">
        <ele>836.898438</ele>
        <time>2014-04-27T14:57:47Z</time>
      </trkpt>
      <trkpt lat="45.66581" lon="2.9925">
        <ele>851.597656</ele>
        <time>2014-04-27T14:57:55Z</time>
      </trkpt>
      <trkpt lat="45.66584" lon="2.99238">
        <ele>850.398438</ele>
        <time>2014-04-27T14:57:59Z</time>
      </trkpt>
      <trkpt lat="45.66581" lon="2.99225">
        <ele>849.199219</ele>
        <time>2014-04-27T14:58:12Z</time>
      </trkpt>
      <trkpt lat="45.66579" lon="2.99212">
        <ele>849.898438</ele>
        <time>2014-04-27T14:58:27Z</time>
      </trkpt>
      <trkpt lat="45.66574" lon="2.992">
        <ele>852.699219</ele>
        <time>2014-04-27T14:58:38Z</time>
      </trkpt>
      <trkpt lat="45.66573" lon="2.99187">
        <ele>854.398438</ele>
        <time>2014-04-27T14:58:49Z</time>
      </trkpt>
      <trkpt lat="45.6657" lon="2.99175">
        <ele>853.5</ele>
        <time>2014-04-27T14:59:00Z</time>
      </trkpt>
      <trkpt lat="45.66566" lon="2.99162">
        <ele>852.597656</ele>
        <time>2014-04-27T14:59:09Z</time>
      </trkpt>
      <trkpt lat="45.66556" lon="2.9914">
        <ele>853.699219</ele>
        <time>2014-04-27T14:59:27Z</time>
      </trkpt>
      <trkpt lat="45.6655" lon="2.99129">
        <ele>854.097656</ele>
        <time>2014-04-27T14:59:36Z</time>
      </trkpt>
      <trkpt lat="45.66544" lon="2.99119">
        <ele>855.097656</ele>
        <time>2014-04-27T14:59:43Z</time>
      </trkpt>
      <trkpt lat="45.66536" lon="2.9911">
        <ele>854</ele>
        <time>2014-04-27T14:59:51Z</time>
      </trkpt>
      <trkpt lat="45.66529" lon="2.99101">
        <ele>850.597656</ele>
        <time>2014-04-27T14:59:59Z</time>
      </trkpt>
      <trkpt lat="45.66522" lon="2.99091">
        <ele>849.898438</ele>
        <time>2014-04-27T15:00:10Z</time>
      </trkpt>
      <trkpt lat="45.66515" lon="2.99082">
        <ele>848</ele>
        <time>2014-04-27T15:00:20Z</time>
      </trkpt>
      <trkpt lat="45.66501" lon="2.99065">
        <ele>845</ele>
        <time>2014-04-27T15:00:40Z</time>
      </trkpt>
      <trkpt lat="45.66494" lon="2.99055">
        <ele>844.097656</ele>
        <time>2014-04-27T15:00:50Z</time>
      </trkpt>
      <trkpt lat="45.66481" lon="2.99036">
        <ele>846.296875</ele>
        <time>2014-04-27T15:01:11Z</time>
      </trkpt>
      <trkpt lat="45.66476" lon="2.99025">
        <ele>846.398438</ele>
        <time>2014-04-27T15:01:24Z</time>
      </trkpt>
      <trkpt lat="45.66471" lon="2.99014">
        <ele>846</ele>
        <time>2014-04-27T15:01:38Z</time>
      </trkpt>
      <trkpt lat="45.66468" lon="2.99001">
        <ele>844.597656</ele>
        <time>2014-04-27T15:01:55Z</time>
      </trkpt>
      <trkpt lat="45.66469" lon="2.98988">
        <ele>843.898438</ele>
        <time>2014-04-27T15:02:12Z</time>
      </trkpt>
      <trkpt lat="45.66475" lon="2.98977">
        <ele>842.5</ele>
        <time>2014-04-27T15:02:30Z</time>
      </trkpt>
      <trkpt lat="45.66484" lon="2.9898">
        <ele>843.199219</ele>
        <time>2014-04-27T15:02:42Z</time>
      </trkpt>
      <trkpt lat="45.66509" lon="2.98993">
        <ele>845.898438</ele>
        <time>2014-04-27T15:02:57Z</time>
      </trkpt>
      <trkpt lat="45.66517" lon="2.98986">
        <ele>845</ele>
        <time>2014-04-27T15:03:12Z</time>
      </trkpt>
      <trkpt lat="45.66526" lon="2.98983">
        <ele>843.5</ele>
        <time>2014-04-27T15:03:21Z</time>
      </trkpt>
      <trkpt lat="45.66544" lon="2.98977">
        <ele>841</ele>
        <time>2014-04-27T15:03:41Z</time>
      </trkpt>
      <trkpt lat="45.66552" lon="2.9897">
        <ele>842.199219</ele>
        <time>2014-04-27T15:03:53Z</time>
      </trkpt>
      <trkpt lat="45.66559" lon="2.9896">
        <ele>842.296875</ele>
        <time>2014-04-27T15:04:05Z</time>
      </trkpt>
      <trkpt lat="45.66564" lon="2.9895">
        <ele>841.898438</ele>
        <time>2014-04-27T15:04:16Z</time>
      </trkpt>
      <trkpt lat="45.66557" lon="2.98943">
        <ele>841.699219</ele>
        <time>2014-04-27T15:05:16Z</time>
      </trkpt>
      <trkpt lat="45.66551" lon="2.98932">
        <ele>841.5</ele>
        <time>2014-04-27T15:05:28Z</time>
      </trkpt>
      <trkpt lat="45.66554" lon="2.98919">
        <ele>841.597656</ele>
        <time>2014-04-27T15:05:40Z</time>
      </trkpt>
      <trkpt lat="45.66563" lon="2.98881">
        <ele>844</ele>
        <time>2014-04-27T15:06:15Z</time>
      </trkpt>
      <trkpt lat="45.66565" lon="2.98867">
        <ele>844.398438</ele>
        <time>2014-04-27T15:06:26Z</time>
      </trkpt>
      <trkpt lat="45.66568" lon="2.98842">
        <ele>843.796875</ele>
        <time>2014-04-27T15:06:52Z</time>
      </trkpt>
      <trkpt lat="45.66573" lon="2.9883">
        <ele>844.898438</ele>
        <time>2014-04-27T15:07:06Z</time>
      </trkpt>
      <trkpt lat="45.66583" lon="2.98807">
        <ele>844.898438</ele>
        <time>2014-04-27T15:07:33Z</time>
      </trkpt>
      <trkpt lat="45.6659" lon="2.98797">
        <ele>844.898438</ele>
        <time>2014-04-27T15:07:52Z</time>
      </trkpt>
      <trkpt lat="45.66586" lon="2.98775">
        <ele>844.898438</ele>
        <time>2014-04-27T15:08:08Z</time>
      </trkpt>
      <trkpt lat="45.66615" lon="2.988">
        <ele>844.898438</ele>
        <time>2014-04-27T15:08:09Z</time>
      </trkpt>
      <trkpt lat="45.66601" lon="2.98788">
        <ele>847</ele>
        <time>2014-04-27T15:08:10Z</time>
      </trkpt>
      <trkpt lat="45.66606" lon="2.98776">
        <ele>846.199219</ele>
        <time>2014-04-27T15:08:25Z</time>
      </trkpt>
      <trkpt lat="45.66612" lon="2.98766">
        <ele>845.199219</ele>
        <time>2014-04-27T15:08:37Z</time>
      </trkpt>
      <trkpt lat="45.66617" lon="2.98754">
        <ele>844.097656</ele>
        <time>2014-04-27T15:08:50Z</time>
      </trkpt>
      <trkpt lat="45.6662" lon="2.98742">
        <ele>844.097656</ele>
        <time>2014-04-27T15:09:05Z</time>
      </trkpt>
      <trkpt lat="45.66623" lon="2.98729">
        <ele>843</ele>
        <time>2014-04-27T15:09:18Z</time>
      </trkpt>
      <trkpt lat="45.66631" lon="2.98721">
        <ele>842.097656</ele>
        <time>2014-04-27T15:09:31Z</time>
      </trkpt>
      <trkpt lat="45.6664" lon="2.98718">
        <ele>842.796875</ele>
        <time>2014-04-27T15:09:43Z</time>
      </trkpt>
      <trkpt lat="45.66649" lon="2.98724">
        <ele>843.097656</ele>
        <time>2014-04-27T15:09:54Z</time>
      </trkpt>
      <trkpt lat="45.66658" lon="2.9873">
        <ele>842.097656</ele>
        <time>2014-04-27T15:10:03Z</time>
      </trkpt>
      <trkpt lat="45.66666" lon="2.98738">
        <ele>841.5</ele>
        <time>2014-04-27T15:10:13Z</time>
      </trkpt>
      <trkpt lat="45.66674" lon="2.98743">
        <ele>842.398438</ele>
        <time>2014-04-27T15:10:22Z</time>
      </trkpt>
      <trkpt lat="45.66683" lon="2.98748">
        <ele>841.199219</ele>
        <time>2014-04-27T15:10:29Z</time>
      </trkpt>
      <trkpt lat="45.66689" lon="2.98758">
        <ele>845.097656</ele>
        <time>2014-04-27T15:10:38Z</time>
      </trkpt>
      <trkpt lat="45.66691" lon="2.98771">
        <ele>844.296875</ele>
        <time>2014-04-27T15:11:07Z</time>
      </trkpt>
      <trkpt lat="45.66692" lon="2.98784">
        <ele>844.398438</ele>
        <time>2014-04-27T15:11:21Z</time>
      </trkpt>
      <trkpt lat="45.66684" lon="2.98791">
        <ele>844</ele>
        <time>2014-04-27T15:11:32Z</time>
      </trkpt>
      <trkpt lat="45.66676" lon="2.98798">
        <ele>843.796875</ele>
        <time>2014-04-27T15:11:42Z</time>
      </trkpt>
      <trkpt lat="45.66669" lon="2.98808">
        <ele>844.097656</ele>
        <time>2014-04-27T15:11:54Z</time>
      </trkpt>
      <trkpt lat="45.66666" lon="2.9882">
        <ele>843.597656</ele>
        <time>2014-04-27T15:12:04Z</time>
      </trkpt>
      <trkpt lat="45.66662" lon="2.98832">
        <ele>842.796875</ele>
        <time>2014-04-27T15:12:13Z</time>
      </trkpt>
      <trkpt lat="45.66661" lon="2.98845">
        <ele>844.5</ele>
        <time>2014-04-27T15:12:22Z</time>
      </trkpt>
      <trkpt lat="45.6666" lon="2.98858">
        <ele>847</ele>
        <time>2014-04-27T15:12:32Z</time>
      </trkpt>
      <trkpt lat="45.66656" lon="2.98869">
        <ele>847.199219</ele>
        <time>2014-04-27T15:12:42Z</time>
      </trkpt>
      <trkpt lat="45.66654" lon="2.98883">
        <ele>846.5</ele>
        <time>2014-04-27T15:12:51Z</time>
      </trkpt>
      <trkpt lat="45.66653" lon="2.98895">
        <ele>844.875</ele>
        <time>2014-04-27T15:13:00Z</time>
      </trkpt>
      <trkpt lat="45.66654" lon="2.98908">
        <ele>820.5</ele>
        <time>2014-04-27T15:13:14Z</time>
      </trkpt>
      <trkpt lat="45.66599" lon="2.98946">
        <ele>829.097656</ele>
        <time>2014-04-27T15:13:22Z</time>
      </trkpt>
      <trkpt lat="45.66611" lon="2.98945">
        <ele>833.75</ele>
        <time>2014-04-27T15:13:23Z</time>
      </trkpt>
      <trkpt lat="45.66622" lon="2.98937">
        <ele>844</ele>
        <time>2014-04-27T15:13:25Z</time>
      </trkpt>
      <trkpt lat="45.66651" lon="2.98915">
        <ele>843.597656</ele>
        <time>2014-04-27T15:13:26Z</time>
      </trkpt>
      <trkpt lat="45.66662" lon="2.98926">
        <ele>844.597656</ele>
        <time>2014-04-27T15:13:57Z</time>
      </trkpt>
      <trkpt lat="45.66668" lon="2.98937">
        <ele>846.199219</ele>
        <time>2014-04-27T15:14:08Z</time>
      </trkpt>
      <trkpt lat="45.66663" lon="2.98925">
        <ele>846</ele>
        <time>2014-04-27T15:15:20Z</time>
      </trkpt>
      <trkpt lat="45.66657" lon="2.98915">
        <ele>843.597656</ele>
        <time>2014-04-27T15:15:27Z</time>
      </trkpt>
      <trkpt lat="45.6666" lon="2.98902">
        <ele>842.097656</ele>
        <time>2014-04-27T15:15:39Z</time>
      </trkpt>
      <trkpt lat="45.66665" lon="2.9889">
        <ele>843.597656</ele>
        <time>2014-04-27T15:15:53Z</time>
      </trkpt>
      <trkpt lat="45.66673" lon="2.98883">
        <ele>845.597656</ele>
        <time>2014-04-27T15:16:06Z</time>
      </trkpt>
      <trkpt lat="45.66689" lon="2.9887">
        <ele>842.898438</ele>
        <time>2014-04-27T15:16:29Z</time>
      </trkpt>
      <trkpt lat="45.66696" lon="2.98862">
        <ele>842.199219</ele>
        <time>2014-04-27T15:16:41Z</time>
      </trkpt>
      <trkpt lat="45.66705" lon="2.98857">
        <ele>841.699219</ele>
        <time>2014-04-27T15:16:50Z</time>
      </trkpt>
      <trkpt lat="45.66714" lon="2.98853">
        <ele>842.699219</ele>
        <time>2014-04-27T15:17:02Z</time>
      </trkpt>
      <trkpt lat="45.66723" lon="2.98854">
        <ele>844.296875</ele>
        <time>2014-04-27T15:17:12Z</time>
      </trkpt>
      <trkpt lat="45.66733" lon="2.98855">
        <ele>843.898438</ele>
        <time>2014-04-27T15:17:20Z</time>
      </trkpt>
      <trkpt lat="45.66742" lon="2.98858">
        <ele>841.699219</ele>
        <time>2014-04-27T15:17:30Z</time>
      </trkpt>
      <trkpt lat="45.66751" lon="2.98863">
        <ele>840.699219</ele>
        <time>2014-04-27T15:17:39Z</time>
      </trkpt>
      <trkpt lat="45.66761" lon="2.98865">
        <ele>840.699219</ele>
        <time>2014-04-27T15:17:47Z</time>
      </trkpt>
      <trkpt lat="45.66771" lon="2.98865">
        <ele>842.898438</ele>
        <time>2014-04-27T15:17:56Z</time>
      </trkpt>
      <trkpt lat="45.66779" lon="2.98861">
        <ele>843.296875</ele>
        <time>2014-04-27T15:18:10Z</time>
      </trkpt>
      <trkpt lat="45.66789" lon="2.98859">
        <ele>843.898438</ele>
        <time>2014-04-27T15:18:18Z</time>
      </trkpt>
      <trkpt lat="45.66798" lon="2.98854">
        <ele>834.597656</ele>
        <time>2014-04-27T15:18:27Z</time>
      </trkpt>
      <trkpt lat="45.66808" lon="2.98839">
        <ele>844.597656</ele>
        <time>2014-04-27T15:18:39Z</time>
      </trkpt>
      <trkpt lat="45.66817" lon="2.98837">
        <ele>843.296875</ele>
        <time>2014-04-27T15:18:50Z</time>
      </trkpt>
      <trkpt lat="45.66836" lon="2.98832">
        <ele>844.398438</ele>
        <time>2014-04-27T15:19:10Z</time>
      </trkpt>
      <trkpt lat="45.66846" lon="2.98831">
        <ele>844</ele>
        <time>2014-04-27T15:19:19Z</time>
      </trkpt>
      <trkpt lat="45.66856" lon="2.98832">
        <ele>843.699219</ele>
        <time>2014-04-27T15:19:28Z</time>
      </trkpt>
      <trkpt lat="45.66866" lon="2.98833">
        <ele>844.5</ele>
        <time>2014-04-27T15:19:36Z</time>
      </trkpt>
      <trkpt lat="45.66875" lon="2.98835">
        <ele>845.898438</ele>
        <time>2014-04-27T15:19:46Z</time>
      </trkpt>
      <trkpt lat="45.66884" lon="2.98839">
        <ele>846.398438</ele>
        <time>2014-04-27T15:19:55Z</time>
      </trkpt>
      <trkpt lat="45.66947" lon="2.98867">
        <ele>842.699219</ele>
        <time>2014-04-27T15:20:52Z</time>
      </trkpt>
      <trkpt lat="45.66966" lon="2.9887">
        <ele>843.398438</ele>
        <time>2014-04-27T15:21:08Z</time>
      </trkpt>
      <trkpt lat="45.66969" lon="2.98882">
        <ele>848.398438</ele>
        <time>2014-04-27T15:21:19Z</time>
      </trkpt>
      <trkpt lat="45.66979" lon="2.98882">
        <ele>846.796875</ele>
        <time>2014-04-27T15:21:38Z</time>
      </trkpt>
      <trkpt lat="45.66984" lon="2.98871">
        <ele>845.699219</ele>
        <time>2014-04-27T15:21:46Z</time>
      </trkpt>
      <trkpt lat="45.66987" lon="2.98858">
        <ele>845.398438</ele>
        <time>2014-04-27T15:21:55Z</time>
      </trkpt>
      <trkpt lat="45.66988" lon="2.98844">
        <ele>844.699219</ele>
        <time>2014-04-27T15:22:04Z</time>
      </trkpt>
      <trkpt lat="45.66985" lon="2.9883">
        <ele>844.898438</ele>
        <time>2014-04-27T15:22:13Z</time>
      </trkpt>
      <trkpt lat="45.66982" lon="2.98818">
        <ele>845.597656</ele>
        <time>2014-04-27T15:22:22Z</time>
      </trkpt>
      <trkpt lat="45.66977" lon="2.98807">
        <ele>845.597656</ele>
        <time>2014-04-27T15:22:31Z</time>
      </trkpt>
      <trkpt lat="45.66971" lon="2.98796">
        <ele>846.199219</ele>
        <time>2014-04-27T15:22:40Z</time>
      </trkpt>
      <trkpt lat="45.66965" lon="2.98786">
        <ele>847.597656</ele>
        <time>2014-04-27T15:22:49Z</time>
      </trkpt>
      <trkpt lat="45.66944" lon="2.98757">
        <ele>847.296875</ele>
        <time>2014-04-27T15:23:17Z</time>
      </trkpt>
      <trkpt lat="45.66932" lon="2.98737">
        <ele>880.597656</ele>
        <time>2014-04-27T15:23:37Z</time>
      </trkpt>
      <trkpt lat="45.66923" lon="2.98697">
        <ele>854.898438</ele>
        <time>2014-04-27T15:23:52Z</time>
      </trkpt>
      <trkpt lat="45.66918" lon="2.9871">
        <ele>852.699219</ele>
        <time>2014-04-27T15:23:54Z</time>
      </trkpt>
      <trkpt lat="45.66909" lon="2.98708">
        <ele>849.097656</ele>
        <time>2014-04-27T15:24:07Z</time>
      </trkpt>
      <trkpt lat="45.669" lon="2.98704">
        <ele>847</ele>
        <time>2014-04-27T15:24:18Z</time>
      </trkpt>
      <trkpt lat="45.66892" lon="2.98698">
        <ele>845.699219</ele>
        <time>2014-04-27T15:24:30Z</time>
      </trkpt>
      <trkpt lat="45.66884" lon="2.98692">
        <ele>845.699219</ele>
        <time>2014-04-27T15:24:40Z</time>
      </trkpt>
      <trkpt lat="45.66868" lon="2.98676">
        <ele>847.699219</ele>
        <time>2014-04-27T15:25:00Z</time>
      </trkpt>
      <trkpt lat="45.66845" lon="2.98653">
        <ele>848.796875</ele>
        <time>2014-04-27T15:25:33Z</time>
      </trkpt>
      <trkpt lat="45.66837" lon="2.98648">
        <ele>849.296875</ele>
        <time>2014-04-27T15:25:48Z</time>
      </trkpt>
      <trkpt lat="45.66828" lon="2.98642">
        <ele>849.898438</ele>
        <time>2014-04-27T15:26:03Z</time>
      </trkpt>
      <trkpt lat="45.66812" lon="2.98628">
        <ele>851.296875</ele>
        <time>2014-04-27T15:26:28Z</time>
      </trkpt>
      <trkpt lat="45.66805" lon="2.98619">
        <ele>851.296875</ele>
        <time>2014-04-27T15:26:42Z</time>
      </trkpt>
      <trkpt lat="45.66796" lon="2.98613">
        <ele>850.597656</ele>
        <time>2014-04-27T15:26:55Z</time>
      </trkpt>
      <trkpt lat="45.66788" lon="2.98607">
        <ele>850.296875</ele>
        <time>2014-04-27T15:27:09Z</time>
      </trkpt>
      <trkpt lat="45.6678" lon="2.98599">
        <ele>850.597656</ele>
        <time>2014-04-27T15:27:22Z</time>
      </trkpt>
      <trkpt lat="45.66767" lon="2.98581">
        <ele>851.199219</ele>
        <time>2014-04-27T15:27:42Z</time>
      </trkpt>
      <trkpt lat="45.66759" lon="2.98573">
        <ele>851.796875</ele>
        <time>2014-04-27T15:27:54Z</time>
      </trkpt>
      <trkpt lat="45.66726" lon="2.98545">
        <ele>851.296875</ele>
        <time>2014-04-27T15:28:38Z</time>
      </trkpt>
      <trkpt lat="45.66719" lon="2.98537">
        <ele>850.5</ele>
        <time>2014-04-27T15:28:49Z</time>
      </trkpt>
      <trkpt lat="45.66711" lon="2.98528">
        <ele>827.898438</ele>
        <time>2014-04-27T15:29:01Z</time>
      </trkpt>
      <trkpt lat="45.66726" lon="2.98535">
        <ele>832.597656</ele>
        <time>2014-04-27T15:29:07Z</time>
      </trkpt>
      <trkpt lat="45.66719" lon="2.98525">
        <ele>838.5</ele>
        <time>2014-04-27T15:29:10Z</time>
      </trkpt>
      <trkpt lat="45.6671" lon="2.9852">
        <ele>842.5</ele>
        <time>2014-04-27T15:29:16Z</time>
      </trkpt>
      <trkpt lat="45.66692" lon="2.98509">
        <ele>846.296875</ele>
        <time>2014-04-27T15:29:32Z</time>
      </trkpt>
      <trkpt lat="45.66684" lon="2.98501">
        <ele>847.398438</ele>
        <time>2014-04-27T15:29:42Z</time>
      </trkpt>
      <trkpt lat="45.66656" lon="2.98466">
        <ele>849.296875</ele>
        <time>2014-04-27T15:30:23Z</time>
      </trkpt>
      <trkpt lat="45.6665" lon="2.98457">
        <ele>848.398438</ele>
        <time>2014-04-27T15:30:34Z</time>
      </trkpt>
      <trkpt lat="45.66644" lon="2.98445">
        <ele>848</ele>
        <time>2014-04-27T15:30:45Z</time>
      </trkpt>
      <trkpt lat="45.6664" lon="2.98434">
        <ele>847.597656</ele>
        <time>2014-04-27T15:30:55Z</time>
      </trkpt>
      <trkpt lat="45.66636" lon="2.98421">
        <ele>848.097656</ele>
        <time>2014-04-27T15:31:06Z</time>
      </trkpt>
      <trkpt lat="45.66636" lon="2.98407">
        <ele>848.398438</ele>
        <time>2014-04-27T15:31:17Z</time>
      </trkpt>
      <trkpt lat="45.66637" lon="2.98394">
        <ele>847.796875</ele>
        <time>2014-04-27T15:31:28Z</time>
      </trkpt>
      <trkpt lat="45.6664" lon="2.98381">
        <ele>837.597656</ele>
        <time>2014-04-27T15:31:38Z</time>
      </trkpt>
      <trkpt lat="45.66647" lon="2.98363">
        <ele>839.328125</ele>
        <time>2014-04-27T15:32:11Z</time>
      </trkpt>
      <trkpt lat="45.66647" lon="2.98363">
        <ele>839.328125</ele>
        <time>2014-04-27T15:32:11Z</time>
      </trkpt>
      <trkpt lat="45.66648" lon="2.98364">
        <ele>839.480469</ele>
        <time>2014-04-27T15:32:12Z</time>
      </trkpt>
      <trkpt lat="45.66658" lon="2.98385">
        <ele>844.398438</ele>
        <time>2014-04-27T15:33:39Z</time>
      </trkpt>
    </trkseg>
  </trk>
</gpx>